createdAt,value
2022-10-05T00:00:00.124Z,5.46
2022-10-05T00:02:26.919Z,5.46
2022-10-05T00:04:56.907Z,5.30
2022-10-05T00:07:24.566Z,5.22
2022-10-05T00:09:57.174Z,5.32
2022-10-05T00:12:25.340Z,5.40
2022-10-05T00:14:55.383Z,5.47
2022-10-05T00:17:24.402Z,5.43
2022-10-05T00:19:54.705Z,5.47
2022-10-05T00:22:30.259Z,5.37
2022-10-05T00:24:59.937Z,5.24
2022-10-05T00:27:32.770Z,5.18
2022-10-05T00:30:02.688Z,5.09
2022-10-05T00:32:29.085Z,5.12
2022-10-05T00:34:57.328Z,5.23
2022-10-05T00:37:23.751Z,5.25
2022-10-05T00:39:50.215Z,5.26
2022-10-05T00:42:34.612Z,5.29
2022-10-05T00:45:07.300Z,5.09
2022-10-05T00:48:01.484Z,4.96
2022-10-05T00:50:54.007Z,4.98
2022-10-05T00:53:39.903Z,4.81
2022-10-05T00:56:09.305Z,4.84
2022-10-05T00:58:48.091Z,4.65
2022-10-05T01:01:27.148Z,4.64
2022-10-05T01:04:10.276Z,4.90
2022-10-05T01:06:55.060Z,4.79
2022-10-05T01:09:49.856Z,4.91
2022-10-05T01:13:03.554Z,4.88
2022-10-05T01:15:43.119Z,4.78
2022-10-05T01:18:25.157Z,4.89
2022-10-05T01:21:10.614Z,4.85
2022-10-05T01:23:55.385Z,4.80
2022-10-05T01:26:40.517Z,4.93
2022-10-05T01:29:25.008Z,4.82
2022-10-05T01:32:33.555Z,4.87
2022-10-05T01:35:32.802Z,4.75
2022-10-05T01:38:31.072Z,4.65
2022-10-05T01:41:39.291Z,4.50
2022-10-05T01:44:15.628Z,4.53
2022-10-05T01:46:52.165Z,4.70
2022-10-05T01:49:37.611Z,4.57
2022-10-05T01:52:33.226Z,4.61
2022-10-05T01:55:20.522Z,4.59
2022-10-05T01:58:06.364Z,4.62
2022-10-05T02:00:55.469Z,4.49
2022-10-05T02:03:30.799Z,4.58
2022-10-05T02:06:10.093Z,4.62
2022-10-05T02:08:58.838Z,4.53
2022-10-05T02:11:25.819Z,4.56
2022-10-05T02:13:59.216Z,4.35
2022-10-05T02:16:34.695Z,4.38
2022-10-05T02:19:23.301Z,4.36
2022-10-05T02:21:54.746Z,4.02
2022-10-05T02:24:29.760Z,4.10
2022-10-05T02:26:57.367Z,4.15
2022-10-05T02:29:29.753Z,4.12
2022-10-05T02:32:01.810Z,4.06
2022-10-05T02:34:37.146Z,4.21
2022-10-05T02:37:15.458Z,4.19
2022-10-05T02:40:12.372Z,4.21
2022-10-05T02:42:41.656Z,4.09
2022-10-05T02:45:27.456Z,3.98
2022-10-05T02:48:19.155Z,3.90
2022-10-05T02:51:09.482Z,3.87
2022-10-05T02:54:13.582Z,3.89
2022-10-05T02:57:02.391Z,3.98
2022-10-05T02:59:31.700Z,4.01
2022-10-05T03:02:29.332Z,4.03
2022-10-05T03:05:12.690Z,3.99
2022-10-05T03:08:06.933Z,3.88
2022-10-05T03:10:43.409Z,3.86
2022-10-05T03:13:24.386Z,3.85
2022-10-05T03:16:20.352Z,3.77
2022-10-05T03:19:11.415Z,3.86
2022-10-05T03:21:56.597Z,3.83
2022-10-05T03:24:42.791Z,3.82
2022-10-05T03:27:22.877Z,3.87
2022-10-05T03:30:19.666Z,4.12
2022-10-05T03:32:55.145Z,3.93
2022-10-05T03:35:33.117Z,3.82
2022-10-05T03:37:59.484Z,3.80
2022-10-05T03:40:32.628Z,3.70
2022-10-05T03:43:37.457Z,3.81
2022-10-05T03:46:13.720Z,3.90
2022-10-05T03:48:47.417Z,4.04
2022-10-05T03:51:28.414Z,4.15
2022-10-05T03:53:59.836Z,4.00
2022-10-05T03:56:45.938Z,4.06
2022-10-05T03:59:22.784Z,3.90
2022-10-05T04:01:57.446Z,3.88
2022-10-05T04:04:28.169Z,3.83
2022-10-05T04:06:56.182Z,3.68
2022-10-05T04:09:32.976Z,3.84
2022-10-05T04:12:32.939Z,3.81
2022-10-05T04:15:02.928Z,3.85
2022-10-05T04:18:05.299Z,3.92
2022-10-05T04:20:49.202Z,3.81
2022-10-05T04:23:15.521Z,3.94
2022-10-05T04:26:01.141Z,4.00
2022-10-05T04:29:01.655Z,3.77
2022-10-05T04:31:40.219Z,3.87
2022-10-05T04:34:27.280Z,3.86
2022-10-05T04:37:03.365Z,3.93
2022-10-05T04:39:50.205Z,3.85
2022-10-05T04:42:44.412Z,3.81
2022-10-05T04:45:42.586Z,3.73
2022-10-05T04:48:20.925Z,3.74
2022-10-05T04:51:05.610Z,3.71
2022-10-05T04:53:42.243Z,3.73
2022-10-05T04:56:20.293Z,3.75
2022-10-05T04:59:15.276Z,3.82
2022-10-05T05:01:47.732Z,3.81
2022-10-05T05:04:35.716Z,3.75
2022-10-05T05:07:27.135Z,3.84
2022-10-05T05:10:12.434Z,4.01
2022-10-05T05:13:02.209Z,4.09
2022-10-05T05:15:37.523Z,4.16
2022-10-05T05:18:46.184Z,3.81
2022-10-05T05:21:21.555Z,3.93
2022-10-05T05:23:57.606Z,4.10
2022-10-05T05:26:38.791Z,4.17
2022-10-05T05:29:08.247Z,4.16
2022-10-05T05:31:55.616Z,4.13
2022-10-05T05:34:38.685Z,4.15
2022-10-05T05:37:13.751Z,4.21
2022-10-05T05:40:03.477Z,4.35
2022-10-05T05:42:52.210Z,4.43
2022-10-05T05:45:41.836Z,4.42
2022-10-05T05:48:35.798Z,4.53
2022-10-05T05:51:21.236Z,4.69
2022-10-05T05:53:52.395Z,4.87
2022-10-05T05:56:34.584Z,5.19
2022-10-05T05:59:27.031Z,5.42
2022-10-05T06:02:05.540Z,5.71
2022-10-05T06:04:38.453Z,5.96
2022-10-05T06:07:06.115Z,6.22
2022-10-05T06:09:39.276Z,6.03
2022-10-05T06:12:28.152Z,6.76
2022-10-05T06:15:00.328Z,7.22
2022-10-05T06:17:45.247Z,7.35
2022-10-05T06:20:25.509Z,7.38
2022-10-05T06:22:52.571Z,7.32
2022-10-05T06:25:38.473Z,7.17
2022-10-05T06:28:13.090Z,6.99
2022-10-05T06:31:03.715Z,7.02
2022-10-05T06:33:45.263Z,6.89
2022-10-05T06:36:49.001Z,6.92
2022-10-05T06:39:36.460Z,6.94
2022-10-05T06:42:31.043Z,7.10
2022-10-05T06:45:14.991Z,7.23
2022-10-05T06:47:54.824Z,7.42
2022-10-05T06:50:42.237Z,7.66
2022-10-05T06:53:14.618Z,7.81
2022-10-05T06:55:52.102Z,8.01
2022-10-05T06:58:30.842Z,8.07
2022-10-05T07:01:11.199Z,8.35
2022-10-05T07:04:09.777Z,8.48
2022-10-05T07:06:57.042Z,8.30
2022-10-05T07:09:43.087Z,8.71
2022-10-05T07:12:18.168Z,8.97
2022-10-05T07:14:50.658Z,8.81
2022-10-05T07:17:24.608Z,9.20
2022-10-05T07:20:04.313Z,9.62
2022-10-05T07:22:55.229Z,9.88
2022-10-05T07:25:28.825Z,10.36
2022-10-05T07:28:04.645Z,10.79
2022-10-05T07:30:41.279Z,11.32
2022-10-05T07:33:15.926Z,11.79
2022-10-05T07:36:20.061Z,12.24
2022-10-05T07:38:59.603Z,13.25
2022-10-05T07:41:47.717Z,13.58
2022-10-05T07:44:37.395Z,14.96
2022-10-05T07:47:42.185Z,16.11
2022-10-05T07:50:23.905Z,16.63
2022-10-05T07:52:56.460Z,15.61
2022-10-05T07:55:26.621Z,16.02
2022-10-05T07:58:00.246Z,16.91
2022-10-05T08:00:45.468Z,17.23
2022-10-05T08:03:23.660Z,16.18
2022-10-05T08:05:50.296Z,16.80
2022-10-05T08:08:47.935Z,16.65
2022-10-05T08:11:24.192Z,17.03
2022-10-05T08:14:16.709Z,18.09
2022-10-05T08:16:46.574Z,17.33
2022-10-05T08:19:25.939Z,18.25
2022-10-05T08:21:58.321Z,17.82
2022-10-05T08:24:51.624Z,16.95
2022-10-05T08:27:39.896Z,15.96
2022-10-05T08:30:10.893Z,16.66
2022-10-05T08:33:01.357Z,16.88
2022-10-05T08:35:44.256Z,17.77
2022-10-05T08:38:16.624Z,17.04
2022-10-05T08:41:07.958Z,16.88
2022-10-05T08:43:49.626Z,16.69
2022-10-05T08:46:33.508Z,17.24
2022-10-05T08:49:35.055Z,17.42
2022-10-05T08:52:38.531Z,17.11
2022-10-05T08:55:22.910Z,17.77
2022-10-05T08:58:17.255Z,17.58
2022-10-05T09:01:27.029Z,17.13
2022-10-05T09:04:15.067Z,17.27
2022-10-05T09:07:06.110Z,16.36
2022-10-05T09:10:06.375Z,16.25
2022-10-05T09:12:59.324Z,17.07
2022-10-05T09:16:07.717Z,17.82
2022-10-05T09:18:49.840Z,17.08
2022-10-05T09:21:41.882Z,16.09
2022-10-05T09:24:14.119Z,17.04
2022-10-05T09:26:40.630Z,16.90
2022-10-05T09:29:25.779Z,17.35
2022-10-05T09:32:16.499Z,17.85
2022-10-05T09:34:53.626Z,17.94
2022-10-05T09:37:35.127Z,16.86
2022-10-05T09:40:13.578Z,17.93
2022-10-05T09:43:04.415Z,18.61
2022-10-05T09:45:40.074Z,18.63
2022-10-05T09:48:27.201Z,18.77
2022-10-05T09:51:01.364Z,19.88
2022-10-05T09:53:49.091Z,20.48
2022-10-05T09:56:52.895Z,19.38
2022-10-05T09:59:36.776Z,18.42
2022-10-05T10:02:09.735Z,19.08
2022-10-05T10:05:04.083Z,19.65
2022-10-05T10:07:50.179Z,19.68
2022-10-05T10:10:43.859Z,20.03
2022-10-05T10:13:37.931Z,19.70
2022-10-05T10:16:30.500Z,21.42
2022-10-05T10:19:12.617Z,22.27
2022-10-05T10:22:10.807Z,23.52
2022-10-05T10:24:58.405Z,24.53
2022-10-05T10:27:42.938Z,23.67
2022-10-05T10:30:28.430Z,22.93
2022-10-05T10:33:04.254Z,21.73
2022-10-05T10:35:37.768Z,21.33
2022-10-05T10:38:23.644Z,21.12
2022-10-05T10:40:56.294Z,20.24
2022-10-05T10:43:58.687Z,20.92
2022-10-05T10:46:53.150Z,21.20
2022-10-05T10:49:53.243Z,21.19
2022-10-05T10:52:31.703Z,21.87
2022-10-05T10:55:26.138Z,23.89
2022-10-05T11:01:11.297Z,26.24
2022-10-05T11:03:49.790Z,25.03
2022-10-05T11:06:33.504Z,25.30
2022-10-05T11:09:12.547Z,24.00
2022-10-05T11:11:58.484Z,23.10
2022-10-05T11:14:42.954Z,24.53
2022-10-05T11:17:25.262Z,23.70
2022-10-05T11:20:04.004Z,22.68
2022-10-05T11:22:31.384Z,21.47
2022-10-05T11:25:09.962Z,21.45
2022-10-05T11:28:20.722Z,23.58
2022-10-05T11:30:51.243Z,23.77
2022-10-05T11:33:54.932Z,24.30
2022-10-05T11:36:46.085Z,25.28
2022-10-05T11:39:55.489Z,22.70
2022-10-05T11:42:27.862Z,24.20
2022-10-05T11:45:23.483Z,22.26
2022-10-05T11:47:49.807Z,22.89
2022-10-05T11:50:19.206Z,21.91
2022-10-05T11:53:07.202Z,22.43
2022-10-05T11:56:01.335Z,22.54
2022-10-05T11:58:50.267Z,23.23
2022-10-05T12:01:43.803Z,25.29
2022-10-05T12:05:07.293Z,22.57
2022-10-05T12:07:58.636Z,23.47
2022-10-05T12:10:42.472Z,24.56
2022-10-05T12:13:29.483Z,21.32
2022-10-05T12:16:13.150Z,22.70
2022-10-05T12:18:45.607Z,21.56
2022-10-05T12:21:43.842Z,22.27
2022-10-05T12:24:27.154Z,22.81
2022-10-05T12:27:07.410Z,24.22
2022-10-05T12:29:42.782Z,25.20
2022-10-05T12:32:21.466Z,24.18
2022-10-05T12:35:01.494Z,23.77
2022-10-05T12:37:41.179Z,26.41
2022-10-05T12:40:25.049Z,25.38
2022-10-05T12:43:12.413Z,24.98
2022-10-05T12:46:02.667Z,25.15
2022-10-05T12:48:49.186Z,22.17
2022-10-05T12:51:27.871Z,25.56
2022-10-05T12:54:13.519Z,23.94
2022-10-05T12:56:52.047Z,23.35
2022-10-05T12:59:52.688Z,23.20
2022-10-05T13:02:31.895Z,23.08
2022-10-05T13:05:03.987Z,22.38
2022-10-05T13:07:52.182Z,25.13
2022-10-05T13:10:39.287Z,27.29
2022-10-05T13:13:21.693Z,23.95
2022-10-05T13:16:00.103Z,25.11
2022-10-05T13:18:26.511Z,25.32
2022-10-05T13:21:03.941Z,28.32
2022-10-05T13:24:01.415Z,29.73
2022-10-05T13:26:40.887Z,24.97
2022-10-05T13:29:28.908Z,28.51
2022-10-05T13:32:03.901Z,30.89
2022-10-05T13:34:43.546Z,32.24
2022-10-05T13:37:31.950Z,31.30
2022-10-05T13:40:17.824Z,30.84
2022-10-05T13:42:55.480Z,27.57
2022-10-05T13:45:24.869Z,31.66
2022-10-05T13:48:23.181Z,27.56
2022-10-05T13:51:19.032Z,27.64
2022-10-05T13:53:53.160Z,23.86
2022-10-05T13:56:29.172Z,24.95
2022-10-05T13:59:14.390Z,26.57
2022-10-05T14:01:45.888Z,26.16
2022-10-05T14:04:20.978Z,24.71
2022-10-05T14:06:48.873Z,25.16
2022-10-05T14:09:29.032Z,24.23
2022-10-05T14:12:12.183Z,23.07
2022-10-05T14:14:58.512Z,22.46
2022-10-05T14:17:43.330Z,22.85
2022-10-05T14:20:28.171Z,21.56
2022-10-05T14:23:19.750Z,20.81
2022-10-05T14:25:54.058Z,19.95
2022-10-05T14:28:31.460Z,19.82
2022-10-05T14:31:03.848Z,19.94
2022-10-05T14:33:33.537Z,20.04
2022-10-05T14:36:00.062Z,20.24
2022-10-05T14:38:29.713Z,19.95
2022-10-05T14:41:08.039Z,19.89
2022-10-05T14:43:35.258Z,19.66
2022-10-05T14:46:23.245Z,19.46
2022-10-05T14:49:13.415Z,19.70
2022-10-05T14:51:42.106Z,19.70
2022-10-05T14:54:35.759Z,19.28
2022-10-05T14:57:22.434Z,18.89
2022-10-05T15:00:07.310Z,19.21
2022-10-05T15:03:08.726Z,19.25
2022-10-05T15:05:55.646Z,19.27
2022-10-05T15:08:31.232Z,19.16
2022-10-05T15:11:07.583Z,18.93
2022-10-05T15:13:43.604Z,18.84
2022-10-05T15:16:24.878Z,19.07
2022-10-05T15:19:03.318Z,19.38
2022-10-05T15:21:42.352Z,19.47
2022-10-05T15:24:22.313Z,19.04
2022-10-05T15:26:56.265Z,18.95
2022-10-05T15:29:51.215Z,19.05
2022-10-05T15:32:24.748Z,19.12
2022-10-05T15:35:20.629Z,19.29
2022-10-05T15:37:57.723Z,19.44
2022-10-05T15:40:37.264Z,19.64
2022-10-05T15:43:11.557Z,19.40
2022-10-05T15:45:51.711Z,19.43
2022-10-05T15:48:29.035Z,19.26
2022-10-05T15:51:01.672Z,19.17
2022-10-05T15:53:43.382Z,19.11
2022-10-05T15:56:27.760Z,18.76
2022-10-05T15:58:59.851Z,18.59
2022-10-05T16:01:32.321Z,18.56
2022-10-05T16:04:52.561Z,18.26
2022-10-05T16:07:50.995Z,18.29
2022-10-05T16:10:21.461Z,18.16
2022-10-05T16:13:04.318Z,17.96
2022-10-05T16:15:43.030Z,17.71
2022-10-05T16:18:34.057Z,17.65
2022-10-05T16:21:29.307Z,17.64
2022-10-05T16:24:33.619Z,17.75
2022-10-05T16:27:10.308Z,17.43
2022-10-05T16:29:50.546Z,17.40
2022-10-05T16:32:30.474Z,17.43
2022-10-05T16:35:02.634Z,17.42
2022-10-05T16:37:46.099Z,17.33
2022-10-05T16:40:38.257Z,17.37
2022-10-05T16:43:19.672Z,17.19
2022-10-05T16:46:12.338Z,17.17
2022-10-05T16:49:21.115Z,17.03
2022-10-05T16:52:01.644Z,17.00
2022-10-05T16:54:38.262Z,17.00
2022-10-05T16:57:20.041Z,17.08
2022-10-05T16:59:55.359Z,17.09
2022-10-05T17:02:34.011Z,17.10
2022-10-05T17:05:12.304Z,17.06
2022-10-05T17:07:58.293Z,17.14
2022-10-05T17:10:40.191Z,17.06
2022-10-05T17:13:37.299Z,17.04
2022-10-05T17:16:25.170Z,17.16
2022-10-05T17:19:19.150Z,17.17
2022-10-05T17:21:55.456Z,17.24
2022-10-05T17:24:32.669Z,17.28
2022-10-05T17:27:17.776Z,17.32
2022-10-05T17:29:47.610Z,17.28
2022-10-05T17:32:16.732Z,17.32
2022-10-05T17:35:01.207Z,17.34
2022-10-05T17:37:35.519Z,17.30
2022-10-05T17:40:29.745Z,17.30
2022-10-05T17:43:01.202Z,17.35
2022-10-05T17:45:33.550Z,17.51
2022-10-05T17:48:10.081Z,17.51
2022-10-05T17:51:13.030Z,17.50
2022-10-05T17:54:01.376Z,17.49
2022-10-05T17:56:28.347Z,17.47
2022-10-05T17:58:54.923Z,17.60
2022-10-05T18:01:32.496Z,17.58
2022-10-05T18:04:13.869Z,17.61
2022-10-05T18:07:01.523Z,17.49
2022-10-05T18:09:33.018Z,17.37
2022-10-05T18:12:17.870Z,17.40
2022-10-05T18:14:56.366Z,17.39
2022-10-05T18:17:45.283Z,17.36
2022-10-05T18:20:23.779Z,17.25
2022-10-05T18:22:53.330Z,17.23
2022-10-05T18:25:26.125Z,17.22
2022-10-05T18:28:19.211Z,17.23
2022-10-05T18:31:16.395Z,17.31
2022-10-05T18:33:55.235Z,17.28
2022-10-05T18:36:44.407Z,17.27
2022-10-05T18:39:38.227Z,17.26
2022-10-05T18:42:20.854Z,17.29
2022-10-05T18:44:55.566Z,17.25
2022-10-05T18:47:37.209Z,17.29
2022-10-05T18:50:46.409Z,17.29
2022-10-05T18:53:15.797Z,17.32
2022-10-05T18:55:49.219Z,17.34
2022-10-05T18:58:26.446Z,17.33
2022-10-05T19:01:26.775Z,17.29
2022-10-05T19:04:08.491Z,17.35
2022-10-05T19:07:01.843Z,17.27
2022-10-05T19:10:10.977Z,17.19
2022-10-05T19:13:07.215Z,17.13
2022-10-05T19:15:59.054Z,17.21
2022-10-05T19:18:42.060Z,17.18
2022-10-05T19:21:34.399Z,17.30
2022-10-05T19:24:33.716Z,17.22
2022-10-05T19:27:37.490Z,17.19
2022-10-05T19:30:22.989Z,17.15
2022-10-05T19:33:23.326Z,17.09
2022-10-05T19:36:13.419Z,17.11
2022-10-05T19:39:05.812Z,17.15
2022-10-05T19:41:41.029Z,17.12
2022-10-05T19:44:29.399Z,17.16
2022-10-05T19:47:01.113Z,17.17
2022-10-05T19:49:51.817Z,17.11
2022-10-05T19:52:28.410Z,17.08
2022-10-05T19:55:26.287Z,17.02
2022-10-05T19:57:55.245Z,16.88
2022-10-05T20:00:25.527Z,16.84
2022-10-05T20:03:09.080Z,16.77
2022-10-05T20:05:35.655Z,16.87
2022-10-05T20:08:03.485Z,16.82
2022-10-05T20:10:30.799Z,16.76
2022-10-05T20:13:00.661Z,16.68
2022-10-05T20:15:47.307Z,16.74
2022-10-05T20:19:02.912Z,16.69
2022-10-05T20:21:39.447Z,16.69
2022-10-05T20:24:17.486Z,16.71
2022-10-05T20:27:03.372Z,16.66
2022-10-05T20:29:37.610Z,16.68
2022-10-05T20:32:12.818Z,16.57
2022-10-05T20:34:41.618Z,16.55
2022-10-05T20:37:12.966Z,16.47
2022-10-05T20:39:40.395Z,16.52
2022-10-05T20:42:08.243Z,16.52
2022-10-05T20:44:37.007Z,16.52
2022-10-05T20:47:04.612Z,16.69
2022-10-05T20:49:31.816Z,16.66
2022-10-05T20:51:59.042Z,16.61
2022-10-05T20:54:26.818Z,16.62
2022-10-05T20:56:55.653Z,16.67
2022-10-05T20:59:23.563Z,16.60
2022-10-05T21:01:50.544Z,16.62
2022-10-05T21:04:30.203Z,16.66
2022-10-05T21:07:02.647Z,16.67
2022-10-05T21:09:29.977Z,16.70
2022-10-05T21:11:56.362Z,16.71
2022-10-05T21:14:23.850Z,16.64
2022-10-05T21:16:51.243Z,16.67
2022-10-05T21:19:17.650Z,16.63
2022-10-05T21:21:45.660Z,16.49
2022-10-05T21:24:14.263Z,16.52
2022-10-05T21:26:41.995Z,16.41
2022-10-05T21:29:12.531Z,16.32
2022-10-05T21:31:39.748Z,16.36
2022-10-05T21:34:06.397Z,16.39
2022-10-05T21:36:33.084Z,16.30
2022-10-05T21:38:59.657Z,16.12
2022-10-05T21:41:26.532Z,16.08
2022-10-05T21:43:53.221Z,16.01
2022-10-05T21:46:22.824Z,16.02
2022-10-05T21:48:49.799Z,16.05
2022-10-05T21:51:18.777Z,16.06
2022-10-05T21:53:56.585Z,16.09
2022-10-05T21:56:27.973Z,16.15
2022-10-05T21:58:54.567Z,16.09
2022-10-05T22:01:22.774Z,16.10
2022-10-05T22:03:49.786Z,15.98
2022-10-05T22:06:16.421Z,15.94
2022-10-05T22:08:43.147Z,15.93
2022-10-05T22:11:15.345Z,15.99
2022-10-05T22:13:45.466Z,15.99
2022-10-05T22:16:12.981Z,15.94
2022-10-05T22:18:40.009Z,15.93
2022-10-05T22:21:07.937Z,16.01
2022-10-05T22:23:35.851Z,16.02
2022-10-05T22:26:03.912Z,15.92
2022-10-05T22:28:32.606Z,16.01
2022-10-05T22:31:02.975Z,16.00
2022-10-05T22:33:29.639Z,15.99
2022-10-05T22:35:58.820Z,15.87
2022-10-05T22:38:25.768Z,15.80
2022-10-05T22:40:52.337Z,15.77
2022-10-05T22:43:18.719Z,15.79
2022-10-05T22:45:45.188Z,15.86
2022-10-05T22:48:11.884Z,15.95
2022-10-05T22:50:38.232Z,16.04
2022-10-05T22:53:04.646Z,16.06
2022-10-05T22:55:31.092Z,16.01
2022-10-05T22:57:57.443Z,16.12
2022-10-05T23:00:35.147Z,15.97
2022-10-05T23:03:10.160Z,15.80
2022-10-05T23:05:36.517Z,15.86
2022-10-05T23:08:02.963Z,15.85
2022-10-05T23:10:29.481Z,15.80
2022-10-05T23:13:00.558Z,15.74
2022-10-05T23:15:27.471Z,15.78
2022-10-05T23:17:55.945Z,15.90
2022-10-05T23:20:24.504Z,15.77
2022-10-05T23:22:50.882Z,15.67
2022-10-05T23:25:17.801Z,15.56
2022-10-05T23:27:44.231Z,15.53
2022-10-05T23:30:11.795Z,15.57
2022-10-05T23:32:40.543Z,15.54
2022-10-05T23:35:09.261Z,15.47
2022-10-05T23:37:43.739Z,15.49
2022-10-05T23:40:13.155Z,15.29
2022-10-05T23:42:40.593Z,15.22
2022-10-05T23:45:08.734Z,14.99
2022-10-05T23:47:35.289Z,14.93
2022-10-05T23:50:02.168Z,14.94
2022-10-05T23:52:28.637Z,14.83
2022-10-05T23:54:55.063Z,14.84
2022-10-05T23:57:21.537Z,14.91
2022-10-05T23:59:50.186Z,14.93
